sensor_id;sensor_type;location;lat;lon;timestamp;temperature;humidity
13433;DHT22;6789;47.678;9.158;2022-08-04T00:02:09;23.00;99.90
13433;DHT22;6789;47.678;9.158;2022-08-04T00:07:34;22.90;99.90
13433;DHT22;6789;47.678;9.158;2022-08-04T00:12:40;22.80;99.90
13433;DHT22;6789;47.678;9.158;2022-08-04T00:22:39;22.90;99.90
13433;DHT22;6789;47.678;9.158;2022-08-04T00:27:36;23.00;99.90
13433;DHT22;6789;47.678;9.158;2022-08-04T00:32:29;22.90;99.90
13433;DHT22;6789;47.678;9.158;2022-08-04T00:37:26;22.70;99.90
13433;DHT22;6789;47.678;9.158;2022-08-04T00:42:25;22.50;99.90
13433;DHT22;6789;47.678;9.158;2022-08-04T00:53:23;22.40;99.90
13433;DHT22;6789;47.678;9.158;2022-08-04T01:09:25;22.40;99.90
13433;DHT22;6789;47.678;9.158;2022-08-04T01:15:04;22.40;99.90
13433;DHT22;6789;47.678;9.158;2022-08-04T01:20:07;22.30;99.90
13433;DHT22;6789;47.678;9.158;2022-08-04T01:31:54;22.10;99.90
13433;DHT22;6789;47.678;9.158;2022-08-04T01:37:11;21.90;99.90
13433;DHT22;6789;47.678;9.158;2022-08-04T01:42:25;21.70;99.90
13433;DHT22;6789;47.678;9.158;2022-08-04T01:47:25;21.50;99.90
13433;DHT22;6789;47.678;9.158;2022-08-04T01:52:20;21.40;99.90
13433;DHT22;6789;47.678;9.158;2022-08-04T01:57:16;21.40;99.90
13433;DHT22;6789;47.678;9.158;2022-08-04T02:02:28;21.40;99.90
13433;DHT22;6789;47.678;9.158;2022-08-04T02:07:39;21.60;99.90
13433;DHT22;6789;47.678;9.158;2022-08-04T02:13:00;21.70;99.90
13433;DHT22;6789;47.678;9.158;2022-08-04T02:18:18;21.60;99.90
13433;DHT22;6789;47.678;9.158;2022-08-04T02:23:22;21.60;99.90
13433;DHT22;6789;47.678;9.158;2022-08-04T02:28:46;21.70;99.90
13433;DHT22;6789;47.678;9.158;2022-08-04T02:33:45;21.60;99.90
13433;DHT22;6789;47.678;9.158;2022-08-04T02:38:59;21.50;99.90
13433;DHT22;6789;47.678;9.158;2022-08-04T02:43:57;21.70;99.90
13433;DHT22;6789;47.678;9.158;2022-08-04T02:48:52;21.70;99.90
13433;DHT22;6789;47.678;9.158;2022-08-04T02:53:49;21.50;99.90
13433;DHT22;6789;47.678;9.158;2022-08-04T02:58:48;21.70;99.90
13433;DHT22;6789;47.678;9.158;2022-08-04T03:20:21;21.60;99.90
13433;DHT22;6789;47.678;9.158;2022-08-04T03:25:49;21.40;99.90
13433;DHT22;6789;47.678;9.158;2022-08-04T03:31:09;21.40;99.90
13433;DHT22;6789;47.678;9.158;2022-08-04T04:09:11;21.80;99.90
13433;DHT22;6789;47.678;9.158;2022-08-04T04:14:39;21.80;99.90
13433;DHT22;6789;47.678;9.158;2022-08-04T04:25:18;21.50;99.90
13433;DHT22;6789;47.678;9.158;2022-08-04T04:51:30;26.30;99.90
13433;DHT22;6789;47.678;9.158;2022-08-04T04:56:44;27.40;99.90
13433;DHT22;6789;47.678;9.158;2022-08-04T05:01:54;28.50;99.90
13433;DHT22;6789;47.678;9.158;2022-08-04T05:07:16;29.30;99.90
13433;DHT22;6789;47.678;9.158;2022-08-04T05:18:21;30.60;99.90
13433;DHT22;6789;47.678;9.158;2022-08-04T05:23:24;30.90;99.90
13433;DHT22;6789;47.678;9.158;2022-08-04T05:28:24;31.50;99.90
13433;DHT22;6789;47.678;9.158;2022-08-04T05:33:31;32.00;99.90
13433;DHT22;6789;47.678;9.158;2022-08-04T05:38:34;31.90;99.90
13433;DHT22;6789;47.678;9.158;2022-08-04T05:43:30;32.70;99.90
13433;DHT22;6789;47.678;9.158;2022-08-04T05:48:24;32.70;99.90
13433;DHT22;6789;47.678;9.158;2022-08-04T05:53:18;33.20;99.90
13433;DHT22;6789;47.678;9.158;2022-08-04T05:58:28;33.20;99.90
13433;DHT22;6789;47.678;9.158;2022-08-04T06:03:37;33.00;99.90
13433;DHT22;6789;47.678;9.158;2022-08-04T06:08:31;32.90;99.90
13433;DHT22;6789;47.678;9.158;2022-08-04T06:13:28;32.70;99.90
13433;DHT22;6789;47.678;9.158;2022-08-04T06:18:42;32.80;99.90
13433;DHT22;6789;47.678;9.158;2022-08-04T06:23:50;32.30;99.90
13433;DHT22;6789;47.678;9.158;2022-08-04T06:28:56;32.10;99.90
13433;DHT22;6789;47.678;9.158;2022-08-04T06:34:05;32.00;99.90
13433;DHT22;6789;47.678;9.158;2022-08-04T06:39:12;31.30;99.90
13433;DHT22;6789;47.678;9.158;2022-08-04T06:44:10;30.90;99.90
13433;DHT22;6789;47.678;9.158;2022-08-04T06:49:07;30.80;99.90
13433;DHT22;6789;47.678;9.158;2022-08-04T06:54:14;30.80;99.90
13433;DHT22;6789;47.678;9.158;2022-08-04T06:59:21;30.60;99.90
13433;DHT22;6789;47.678;9.158;2022-08-04T07:04:29;30.30;99.90
13433;DHT22;6789;47.678;9.158;2022-08-04T07:09:38;30.20;99.90
13433;DHT22;6789;47.678;9.158;2022-08-04T07:14:49;30.10;99.90
13433;DHT22;6789;47.678;9.158;2022-08-04T07:19:56;29.90;99.90
13433;DHT22;6789;47.678;9.158;2022-08-04T07:25:08;29.80;99.90
13433;DHT22;6789;47.678;9.158;2022-08-04T07:30:07;29.70;99.90
13433;DHT22;6789;47.678;9.158;2022-08-04T07:35:26;29.70;99.90
13433;DHT22;6789;47.678;9.158;2022-08-04T07:40:34;29.60;99.90
13433;DHT22;6789;47.678;9.158;2022-08-04T07:45:41;28.90;99.90
13433;DHT22;6789;47.678;9.158;2022-08-04T07:50:49;29.10;99.90
13433;DHT22;6789;47.678;9.158;2022-08-04T07:55:57;29.50;99.90
13433;DHT22;6789;47.678;9.158;2022-08-04T08:01:05;29.70;99.90
13433;DHT22;6789;47.678;9.158;2022-08-04T08:06:16;29.90;99.90
13433;DHT22;6789;47.678;9.158;2022-08-04T08:11:45;29.90;99.90
13433;DHT22;6789;47.678;9.158;2022-08-04T08:17:00;30.10;99.90
13433;DHT22;6789;47.678;9.158;2022-08-04T08:22:12;30.10;99.90
13433;DHT22;6789;47.678;9.158;2022-08-04T08:27:19;30.20;99.90
13433;DHT22;6789;47.678;9.158;2022-08-04T08:32:29;30.10;99.90
13433;DHT22;6789;47.678;9.158;2022-08-04T08:37:44;30.30;99.90
13433;DHT22;6789;47.678;9.158;2022-08-04T08:49:01;30.30;99.90
13433;DHT22;6789;47.678;9.158;2022-08-04T09:00:37;30.60;99.90
13433;DHT22;6789;47.678;9.158;2022-08-04T09:11:38;30.90;99.90
13433;DHT22;6789;47.678;9.158;2022-08-04T09:17:01;31.00;99.90
13433;DHT22;6789;47.678;9.158;2022-08-04T09:22:17;31.20;99.90
13433;DHT22;6789;47.678;9.158;2022-08-04T09:27:39;31.20;99.90
13433;DHT22;6789;47.678;9.158;2022-08-04T09:38:32;31.30;99.90
13433;DHT22;6789;47.678;9.158;2022-08-04T09:55:17;31.60;99.90
13433;DHT22;6789;47.678;9.158;2022-08-04T10:00:26;31.70;99.90
13433;DHT22;6789;47.678;9.158;2022-08-04T10:06:09;31.60;99.90
13433;DHT22;6789;47.678;9.158;2022-08-04T10:11:39;32.10;99.90
13433;DHT22;6789;47.678;9.158;2022-08-04T10:22:53;32.00;99.90
13433;DHT22;6789;47.678;9.158;2022-08-04T10:28:08;32.30;99.90
13433;DHT22;6789;47.678;9.158;2022-08-04T10:33:28;32.50;99.90
13433;DHT22;6789;47.678;9.158;2022-08-04T10:50:38;32.30;99.90
13433;DHT22;6789;47.678;9.158;2022-08-04T10:56:21;31.90;99.90
13433;DHT22;6789;47.678;9.158;2022-08-04T11:01:38;31.80;99.90
13433;DHT22;6789;47.678;9.158;2022-08-04T11:06:47;31.90;99.90
13433;DHT22;6789;47.678;9.158;2022-08-04T11:12:00;32.20;99.90
13433;DHT22;6789;47.678;9.158;2022-08-04T11:17:20;32.20;99.90
13433;DHT22;6789;47.678;9.158;2022-08-04T11:23:05;32.20;99.90
13433;DHT22;6789;47.678;9.158;2022-08-04T11:28:54;32.20;99.90
13433;DHT22;6789;47.678;9.158;2022-08-04T11:34:28;32.30;99.90
13433;DHT22;6789;47.678;9.158;2022-08-04T11:39:47;32.20;99.90
13433;DHT22;6789;47.678;9.158;2022-08-04T11:45:19;32.20;99.90
13433;DHT22;6789;47.678;9.158;2022-08-04T11:50:52;32.60;99.90
13433;DHT22;6789;47.678;9.158;2022-08-04T11:56:11;32.50;99.90
13433;DHT22;6789;47.678;9.158;2022-08-04T12:01:41;32.30;99.90
13433;DHT22;6789;47.678;9.158;2022-08-04T12:07:06;32.40;99.90
13433;DHT22;6789;47.678;9.158;2022-08-04T12:12:27;32.40;99.90
13433;DHT22;6789;47.678;9.158;2022-08-04T12:29:06;32.30;99.90
13433;DHT22;6789;47.678;9.158;2022-08-04T12:34:40;32.50;99.90
13433;DHT22;6789;47.678;9.158;2022-08-04T12:40:00;32.70;99.90
13433;DHT22;6789;47.678;9.158;2022-08-04T12:45:12;32.90;99.90
13433;DHT22;6789;47.678;9.158;2022-08-04T12:50:23;32.90;99.90
13433;DHT22;6789;47.678;9.158;2022-08-04T12:55:33;32.90;99.90
13433;DHT22;6789;47.678;9.158;2022-08-04T13:00:40;33.10;99.90
13433;DHT22;6789;47.678;9.158;2022-08-04T13:05:52;33.20;99.90
13433;DHT22;6789;47.678;9.158;2022-08-04T13:11:28;33.00;99.90
13433;DHT22;6789;47.678;9.158;2022-08-04T13:16:44;32.80;99.90
13433;DHT22;6789;47.678;9.158;2022-08-04T13:22:26;32.70;99.90
13433;DHT22;6789;47.678;9.158;2022-08-04T13:29:02;32.70;99.90
13433;DHT22;6789;47.678;9.158;2022-08-04T13:34:32;32.90;99.90
13433;DHT22;6789;47.678;9.158;2022-08-04T13:40:34;32.70;99.90
13433;DHT22;6789;47.678;9.158;2022-08-04T13:51:41;32.60;99.90
13433;DHT22;6789;47.678;9.158;2022-08-04T13:56:58;32.90;99.90
13433;DHT22;6789;47.678;9.158;2022-08-04T14:02:43;33.10;99.90
13433;DHT22;6789;47.678;9.158;2022-08-04T14:08:07;33.00;99.90
13433;DHT22;6789;47.678;9.158;2022-08-04T14:13:29;33.10;99.90
13433;DHT22;6789;47.678;9.158;2022-08-04T14:18:33;33.40;99.90
13433;DHT22;6789;47.678;9.158;2022-08-04T14:28:52;33.30;99.90
13433;DHT22;6789;47.678;9.158;2022-08-04T14:34:01;32.90;99.90
13433;DHT22;6789;47.678;9.158;2022-08-04T14:39:09;32.50;99.90
13433;DHT22;6789;47.678;9.158;2022-08-04T14:44:17;32.70;99.90
13433;DHT22;6789;47.678;9.158;2022-08-04T14:49:24;33.00;99.90
13433;DHT22;6789;47.678;9.158;2022-08-04T14:54:34;33.00;99.90
13433;DHT22;6789;47.678;9.158;2022-08-04T15:00:11;33.00;99.80
13433;DHT22;6789;47.678;9.158;2022-08-04T15:05:38;33.10;99.90
13433;DHT22;6789;47.678;9.158;2022-08-04T15:10:47;33.20;97.50
13433;DHT22;6789;47.678;9.158;2022-08-04T15:15:56;33.20;95.90
13433;DHT22;6789;47.678;9.158;2022-08-04T15:21:06;33.40;96.80
13433;DHT22;6789;47.678;9.158;2022-08-04T15:26:32;33.40;98.10
13433;DHT22;6789;47.678;9.158;2022-08-04T15:31:45;33.30;96.80
13433;DHT22;6789;47.678;9.158;2022-08-04T15:37:10;33.40;98.50
13433;DHT22;6789;47.678;9.158;2022-08-04T15:42:47;33.40;96.60
13433;DHT22;6789;47.678;9.158;2022-08-04T15:48:27;33.60;95.30
13433;DHT22;6789;47.678;9.158;2022-08-04T16:15:57;33.30;93.90
13433;DHT22;6789;47.678;9.158;2022-08-04T16:21:06;33.30;92.80
13433;DHT22;6789;47.678;9.158;2022-08-04T16:37:11;33.30;93.10
13433;DHT22;6789;47.678;9.158;2022-08-04T16:42:29;33.40;92.70
13433;DHT22;6789;47.678;9.158;2022-08-04T16:52:54;33.40;92.40
13433;DHT22;6789;47.678;9.158;2022-08-04T16:58:00;33.40;92.40
13433;DHT22;6789;47.678;9.158;2022-08-04T17:03:08;33.20;92.90
13433;DHT22;6789;47.678;9.158;2022-08-04T17:08:18;33.10;93.90
13433;DHT22;6789;47.678;9.158;2022-08-04T17:13:30;33.00;95.00
13433;DHT22;6789;47.678;9.158;2022-08-04T17:18:57;33.00;95.00
13433;DHT22;6789;47.678;9.158;2022-08-04T17:24:04;33.00;96.40
13433;DHT22;6789;47.678;9.158;2022-08-04T17:29:10;32.90;96.70
13433;DHT22;6789;47.678;9.158;2022-08-04T17:34:18;32.70;96.80
13433;DHT22;6789;47.678;9.158;2022-08-04T17:39:26;32.70;97.10
13433;DHT22;6789;47.678;9.158;2022-08-04T17:44:36;32.70;97.10
13433;DHT22;6789;47.678;9.158;2022-08-04T17:49:44;32.60;96.40
13433;DHT22;6789;47.678;9.158;2022-08-04T17:54:58;32.50;96.80
13433;DHT22;6789;47.678;9.158;2022-08-04T18:00:17;32.30;97.30
13433;DHT22;6789;47.678;9.158;2022-08-04T18:05:27;32.30;97.50
13433;DHT22;6789;47.678;9.158;2022-08-04T18:10:42;32.20;97.70
13433;DHT22;6789;47.678;9.158;2022-08-04T18:16:12;32.10;97.50
13433;DHT22;6789;47.678;9.158;2022-08-04T18:21:23;32.00;97.00
13433;DHT22;6789;47.678;9.158;2022-08-04T18:26:33;31.80;97.00
13433;DHT22;6789;47.678;9.158;2022-08-04T18:31:46;31.70;97.00
13433;DHT22;6789;47.678;9.158;2022-08-04T18:36:55;31.50;97.30
13433;DHT22;6789;47.678;9.158;2022-08-04T18:42:01;31.30;97.40
13433;DHT22;6789;47.678;9.158;2022-08-04T18:47:07;31.20;97.80
13433;DHT22;6789;47.678;9.158;2022-08-04T18:52:15;31.00;98.30
13433;DHT22;6789;47.678;9.158;2022-08-04T18:57:27;30.70;99.30
13433;DHT22;6789;47.678;9.158;2022-08-04T19:02:35;30.40;99.90
13433;DHT22;6789;47.678;9.158;2022-08-04T19:07:43;30.10;99.90
13433;DHT22;6789;47.678;9.158;2022-08-04T19:12:49;29.60;99.90
13433;DHT22;6789;47.678;9.158;2022-08-04T19:17:56;29.40;99.90
13433;DHT22;6789;47.678;9.158;2022-08-04T19:23:11;29.10;99.90
13433;DHT22;6789;47.678;9.158;2022-08-04T19:28:20;28.90;99.90
13433;DHT22;6789;47.678;9.158;2022-08-04T19:33:50;28.70;99.90
13433;DHT22;6789;47.678;9.158;2022-08-04T19:39:05;28.50;99.90
13433;DHT22;6789;47.678;9.158;2022-08-04T19:44:24;28.40;99.90
13433;DHT22;6789;47.678;9.158;2022-08-04T19:49:30;28.20;99.90
13433;DHT22;6789;47.678;9.158;2022-08-04T19:54:35;28.10;99.90
13433;DHT22;6789;47.678;9.158;2022-08-04T19:59:44;27.90;99.90
13433;DHT22;6789;47.678;9.158;2022-08-04T20:04:50;27.80;99.90
13433;DHT22;6789;47.678;9.158;2022-08-04T20:09:58;27.80;99.90
13433;DHT22;6789;47.678;9.158;2022-08-04T20:15:05;27.70;99.90
13433;DHT22;6789;47.678;9.158;2022-08-04T20:20:12;27.50;99.90
13433;DHT22;6789;47.678;9.158;2022-08-04T20:25:19;27.40;99.90
13433;DHT22;6789;47.678;9.158;2022-08-04T20:30:31;27.30;99.90
13433;DHT22;6789;47.678;9.158;2022-08-04T20:35:59;27.10;99.90
13433;DHT22;6789;47.678;9.158;2022-08-04T20:41:14;27.10;99.90
13433;DHT22;6789;47.678;9.158;2022-08-04T20:46:21;26.90;99.90
13433;DHT22;6789;47.678;9.158;2022-08-04T20:51:28;26.90;99.90
13433;DHT22;6789;47.678;9.158;2022-08-04T20:56:35;26.80;99.90
13433;DHT22;6789;47.678;9.158;2022-08-04T21:02:11;26.80;99.90
13433;DHT22;6789;47.678;9.158;2022-08-04T21:07:17;26.70;99.90
13433;DHT22;6789;47.678;9.158;2022-08-04T21:12:24;26.70;99.90
13433;DHT22;6789;47.678;9.158;2022-08-04T21:17:30;26.80;99.90
13433;DHT22;6789;47.678;9.158;2022-08-04T21:22:49;26.70;99.90
13433;DHT22;6789;47.678;9.158;2022-08-04T21:28:00;26.50;99.90
13433;DHT22;6789;47.678;9.158;2022-08-04T21:33:09;26.30;99.90
13433;DHT22;6789;47.678;9.158;2022-08-04T21:38:15;26.20;99.90
13433;DHT22;6789;47.678;9.158;2022-08-04T21:43:23;26.20;99.90
13433;DHT22;6789;47.678;9.158;2022-08-04T21:48:30;26.10;99.90
13433;DHT22;6789;47.678;9.158;2022-08-04T21:53:38;25.90;99.90
13433;DHT22;6789;47.678;9.158;2022-08-04T21:58:32;25.80;99.90
13433;DHT22;6789;47.678;9.158;2022-08-04T22:03:44;25.60;99.90
13433;DHT22;6789;47.678;9.158;2022-08-04T22:08:52;25.40;99.90
13433;DHT22;6789;47.678;9.158;2022-08-04T22:14:01;25.40;99.90
13433;DHT22;6789;47.678;9.158;2022-08-04T22:19:09;25.30;99.90
13433;DHT22;6789;47.678;9.158;2022-08-04T22:24:17;25.10;99.90
13433;DHT22;6789;47.678;9.158;2022-08-04T22:29:23;25.00;99.90
13433;DHT22;6789;47.678;9.158;2022-08-04T22:34:29;24.80;99.90
13433;DHT22;6789;47.678;9.158;2022-08-04T22:39:35;24.70;99.90
13433;DHT22;6789;47.678;9.158;2022-08-04T22:44:47;24.60;99.90
13433;DHT22;6789;47.678;9.158;2022-08-04T22:49:53;24.70;99.90
13433;DHT22;6789;47.678;9.158;2022-08-04T22:54:59;24.90;99.90
13433;DHT22;6789;47.678;9.158;2022-08-04T23:00:06;24.80;99.90
13433;DHT22;6789;47.678;9.158;2022-08-04T23:05:12;24.60;99.90
13433;DHT22;6789;47.678;9.158;2022-08-04T23:10:18;24.50;99.90
13433;DHT22;6789;47.678;9.158;2022-08-04T23:15:24;24.30;99.90
13433;DHT22;6789;47.678;9.158;2022-08-04T23:20:30;24.10;99.90
13433;DHT22;6789;47.678;9.158;2022-08-04T23:25:36;23.90;99.90
13433;DHT22;6789;47.678;9.158;2022-08-04T23:30:45;23.90;99.90
13433;DHT22;6789;47.678;9.158;2022-08-04T23:35:51;24.10;99.90
13433;DHT22;6789;47.678;9.158;2022-08-04T23:41:07;24.10;99.90
13433;DHT22;6789;47.678;9.158;2022-08-04T23:46:15;24.10;99.90
13433;DHT22;6789;47.678;9.158;2022-08-04T23:51:22;24.20;99.90
13433;DHT22;6789;47.678;9.158;2022-08-04T23:56:29;24.30;99.90
